Time;durP1;ratioP1;P1;durP2;ratioP2;P2;SDS_P1;SDS_P2;PMS_P1;PMS_P2;Temp;Humidity;BMP_temperature;BMP_pressure;BME280_temperature;BME280_humidity;BME280_pressure;Samples;Min_cycle;Max_cycle;Signal;HPM_P1;HPM_P2
2023/02/16 00:01:52;;;;;;;;;69.00;55.00;;;;;8.46;65.78;101729.09;4973003;28;45573;-68
2023/02/16 00:04:27;;;;;;;;;60.25;50.50;;;;;8.44;65.64;101733.50;4972665;28;45646;-71
2023/02/16 00:06:53;;;;;;;;;57.25;47.75;;;;;8.41;65.73;101731.81;4973651;28;45595;-71
2023/02/16 00:09:19;;;;;;;;;58.75;49.00;;;;;8.37;65.59;101729.22;4976288;28;45311;-70
2023/02/16 00:14:29;;;;;;;;;63.50;52.25;;;;;8.33;65.36;101739.75;4975352;28;45402;-69
2023/02/16 00:16:56;;;;;;;;;64.25;53.00;;;;;8.30;65.57;101738.94;4975596;28;45310;-70
2023/02/16 00:19:32;;;;;;;;;61.00;49.25;;;;;8.31;65.80;101741.53;4975783;28;45299;-69
2023/02/16 00:21:58;;;;;;;;;64.00;50.75;;;;;8.30;65.73;101728.47;4975315;28;45249;-69
2023/02/16 00:24:25;;;;;;;;;58.50;48.75;;;;;8.30;65.82;101721.44;4975018;28;46050;-68
2023/02/16 00:26:51;;;;;;;;;56.50;47.75;;;;;8.03;65.74;101681.59;4975342;28;45530;-68
2023/02/16 00:29:23;;;;;;;;;61.25;50.00;;;;;8.23;65.94;101717.16;4975327;28;45403;-70
2023/02/16 00:31:49;;;;;;;;;50.75;43.50;;;;;8.25;65.93;101728.50;4975537;28;45303;-70
2023/02/16 00:34:23;;;;;;;;;59.75;49.75;;;;;8.25;65.71;101722.41;4975108;28;46267;-69
2023/02/16 00:36:48;;;;;;;;;60.00;48.75;;;;;8.18;65.54;101709.38;4973863;28;45346;-70
2023/02/16 00:39:13;;;;;;;;;61.00;49.50;;;;;8.18;65.67;101709.38;4974808;28;54393;-71
2023/02/16 00:41:50;;;;;;;;;57.00;48.00;;;;;8.23;65.86;101721.56;4976387;28;45494;-71
2023/02/16 00:44:20;;;;;;;;;52.25;44.25;;;;;8.23;66.06;101722.41;4975512;28;46980;-71
2023/02/16 00:46:46;;;;;;;;;55.00;46.00;;;;;8.23;65.95;101716.31;4975689;28;45222;-70
2023/02/16 00:49:17;;;;;;;;;59.50;49.00;;;;;8.21;65.71;101718.94;4975252;28;45444;-68
2023/02/16 00:51:43;;;;;;;;;59.25;48.00;;;;;8.21;65.92;101713.69;4975766;28;45394;-70
2023/02/16 00:54:08;;;;;;;;;56.00;46.25;;;;;8.15;65.72;101704.16;4977178;28;45430;-71
2023/02/16 00:56:34;;;;;;;;;60.25;50.50;;;;;8.14;65.64;101701.56;4974085;28;46047;-71
2023/02/16 00:59:01;;;;;;;;;59.75;49.00;;;;;8.17;65.82;101710.25;4974026;28;45352;-71
2023/02/16 01:01:30;;;;;;;;;63.25;51.25;;;;;8.15;65.99;101698.94;4975569;28;45889;-70
2023/02/16 01:04:00;;;;;;;;;58.75;48.00;;;;;8.14;65.66;101702.44;4976455;28;46157;-71
2023/02/16 01:11:57;;;;;;;;;60.00;49.25;;;;;8.07;65.98;101694.66;4975592;28;45248;-70
2023/02/16 01:14:23;;;;;;;;;62.25;49.25;;;;;7.93;66.17;101687.81;4975037;28;47279;-70
2023/02/16 01:16:48;;;;;;;;;62.50;51.50;;;;;8.02;66.33;101705.19;4976205;28;45202;-72
2023/02/16 01:19:13;;;;;;;;;59.50;48.50;;;;;8.00;66.35;101707.81;4975512;28;45228;-70
2023/02/16 01:21:39;;;;;;;;;56.25;48.00;;;;;7.96;66.67;101695.63;4975352;28;45236;-70
2023/02/16 01:24:05;;;;;;;;;57.75;48.75;;;;;7.92;66.06;101690.44;4974621;28;45268;-71
2023/02/16 01:26:36;;;;;;;;;58.50;49.00;;;;;7.89;66.28;101689.59;4974724;28;45590;-71
2023/02/16 01:29:01;;;;;;;;;62.50;51.25;;;;;7.95;66.14;101704.38;4975334;28;45331;-70
2023/02/16 01:31:27;;;;;;;;;54.75;46.75;;;;;7.94;66.46;101694.78;4975516;28;45580;-71
2023/02/16 01:33:52;;;;;;;;;58.50;48.50;;;;;7.94;66.56;101696.53;4973656;28;46571;-70
2023/02/16 01:36:42;;;;;;;;;58.75;47.25;;;;;7.92;66.68;101693.06;4975192;28;45252;-70
2023/02/16 01:39:12;;;;;;;;;58.50;49.25;;;;;7.89;66.67;101681.72;4975092;28;45480;-70
2023/02/16 01:41:58;;;;;;;;;56.50;48.25;;;;;7.90;66.68;101690.47;4976495;28;45233;-70
2023/02/16 01:44:28;;;;;;;;;58.50;47.50;;;;;7.92;66.25;101693.94;4974784;28;45287;-69
2023/02/16 01:47:02;;;;;;;;;62.25;51.75;;;;;7.92;66.28;101685.19;4974539;28;45461;-70
2023/02/16 01:49:27;;;;;;;;;55.75;47.50;;;;;7.88;65.92;101679.13;4974625;28;45272;-69
2023/02/16 01:52:11;;;;;;;;;58.75;48.50;;;;;7.93;66.68;101679.06;4974578;28;45636;-70
2023/02/16 01:54:52;;;;;;;;;58.00;48.50;;;;;7.92;66.44;101679.97;4974455;28;45333;-70
2023/02/16 01:57:17;;;;;;;;;59.00;49.75;;;;;7.88;66.46;101671.28;4974896;28;45283;-71
2023/02/16 01:59:42;;;;;;;;;56.50;47.00;;;;;7.88;66.50;101664.28;4975008;28;45166;-70
2023/02/16 02:02:18;;;;;;;;;60.25;49.50;;;;;7.89;66.17;101659.91;4974905;28;45295;-70
2023/02/16 02:07:43;;;;;;;;;59.25;47.50;;;;;7.85;65.93;101664.31;4974064;28;45426;-70
2023/02/16 02:10:22;;;;;;;;;59.50;49.25;;;;;7.85;66.62;101668.69;4974445;28;45379;-70
2023/02/16 02:12:55;;;;;;;;;59.50;49.25;;;;;7.87;66.68;101661.69;4974989;28;45316;-71
2023/02/16 02:15:25;;;;;;;;;57.00;47.75;;;;;7.85;66.29;101653.84;4974715;28;45282;-70
2023/02/16 02:17:51;;;;;;;;;60.00;48.50;;;;;7.77;66.25;101639.97;4973064;28;45442;-72
2023/02/16 02:23:53;;;;;;;;;57.00;48.50;;;;;7.76;66.23;101648.69;4974664;28;45185;-72
2023/02/16 02:26:37;;;;;;;;;56.00;47.25;;;;;7.70;66.47;101638.28;4973377;28;47661;-70
2023/02/16 02:29:38;;;;;;;;;61.25;49.25;;;;;7.63;66.43;101634.00;4974375;28;45425;-71
2023/02/16 02:32:03;;;;;;;;;57.50;47.00;;;;;7.56;67.13;101635.84;4973811;28;45251;-70
2023/02/16 02:35:11;;;;;;;;;50.50;43.00;;;;;7.51;67.16;101628.03;4972763;28;45232;-69
2023/02/16 02:37:46;;;;;;;;;60.25;49.00;;;;;7.49;67.67;101636.78;4973399;28;45531;-70
2023/02/16 02:40:17;;;;;;;;;56.50;46.50;;;;;7.47;67.93;101641.19;4973801;28;45455;-69
2023/02/16 02:42:56;;;;;;;;;57.75;47.25;;;;;7.44;67.46;101632.47;4973041;28;45324;-70
2023/02/16 02:45:34;;;;;;;;;53.50;45.50;;;;;7.44;68.00;101644.69;4973162;28;45464;-69
2023/02/16 02:48:00;;;;;;;;;57.50;48.00;;;;;7.41;67.50;101642.94;4972040;28;47533;-69
2023/02/16 02:50:36;;;;;;;;;57.25;48.00;;;;;7.40;67.49;101650.81;4973025;28;55134;-69
2023/02/16 02:53:08;;;;;;;;;59.25;49.00;;;;;7.40;67.13;101642.97;4974561;28;45228;-70
2023/02/16 03:01:12;;;;;;;;;61.25;50.25;;;;;7.34;67.35;101635.19;4974038;28;45359;-70
2023/02/16 03:03:46;;;;;;;;;56.25;47.25;;;;;7.33;67.71;101643.91;4973651;28;45367;-70
2023/02/16 03:06:33;;;;;;;;;56.25;46.25;;;;;7.30;66.67;101648.31;4973518;28;45428;-70
2023/02/16 03:09:16;;;;;;;;;52.50;44.25;;;;;7.29;67.25;101633.47;4973985;28;46737;-69
2023/02/16 03:14:34;;;;;;;;;58.00;48.25;;;;;7.27;67.62;101627.41;4974753;28;45339;-69
2023/02/16 03:30:56;;;;;;;;;53.75;46.00;;;;;7.36;67.22;101622.94;4973075;28;45308;-70
2023/02/16 03:33:24;;;;;;;;;53.25;45.50;;;;;7.27;67.17;101614.31;4973510;28;45378;-70
2023/02/16 03:35:51;;;;;;;;;55.50;46.25;;;;;7.36;67.01;101630.81;4974071;28;45415;-70
2023/02/16 03:38:16;;;;;;;;;57.00;46.50;;;;;7.37;67.71;101625.53;4973806;28;45592;-70
2023/02/16 03:40:44;;;;;;;;;57.25;47.00;;;;;7.35;67.37;101631.69;4973562;28;45486;-70
2023/02/16 03:43:10;;;;;;;;;57.25;45.50;;;;;7.33;68.16;101625.59;4973429;28;45442;-69
2023/02/16 03:45:40;;;;;;;;;53.75;45.25;;;;;7.32;67.75;101624.72;4972979;28;45434;-71
2023/02/16 03:48:05;;;;;;;;;57.50;46.75;;;;;7.29;67.42;101622.13;4973720;28;45347;-69
2023/02/16 03:50:31;;;;;;;;;54.50;46.00;;;;;7.25;67.49;101618.69;4972217;28;45347;-70
2023/02/16 03:53:05;;;;;;;;;54.25;46.00;;;;;7.16;67.38;101606.53;4971320;28;45378;-69
2023/02/16 03:55:40;;;;;;;;;53.50;45.00;;;;;7.20;67.45;101624.84;4972871;28;45328;-69
2023/02/16 03:58:07;;;;;;;;;52.25;45.00;;;;;7.20;68.19;101627.44;4973107;28;45303;-69
2023/02/16 04:00:33;;;;;;;;;59.50;48.25;;;;;7.17;67.76;101630.97;4973550;28;45295;-71
2023/02/16 04:02:58;;;;;;;;;54.50;46.00;;;;;7.09;67.76;101614.47;4973128;28;45283;-70
2023/02/16 04:05:24;;;;;;;;;57.00;47.25;;;;;7.15;67.83;101635.34;4972675;28;45318;-69
2023/02/16 04:07:50;;;;;;;;;51.50;43.50;;;;;7.13;68.00;101622.28;4973064;28;45549;-70
2023/02/16 04:10:15;;;;;;;;;53.75;45.75;;;;;7.12;67.75;101631.00;4972188;28;46152;-69
2023/02/16 04:12:40;;;;;;;;;55.75;46.25;;;;;7.09;68.77;101624.94;4972084;28;45484;-71
2023/02/16 04:15:14;;;;;;;;;55.25;46.25;;;;;7.06;68.59;101619.75;4970888;28;45459;-69
2023/02/16 04:17:39;;;;;;;;;53.75;45.50;;;;;7.04;68.02;101624.97;4970116;28;45328;-70
2023/02/16 04:20:07;;;;;;;;;57.75;48.00;;;;;7.00;69.11;101618.03;4972278;28;46012;-69
2023/02/16 04:22:32;;;;;;;;;54.25;45.00;;;;;6.99;68.35;101616.31;4972587;27;45824;-70
2023/02/16 04:24:57;;;;;;;;;54.00;45.75;;;;;6.99;69.27;101621.53;4973192;28;45265;-69
2023/02/16 04:27:23;;;;;;;;;55.00;45.50;;;;;6.93;68.71;101614.63;4972313;28;50310;-71
2023/02/16 04:29:48;;;;;;;;;55.00;46.50;;;;;6.86;68.88;101603.31;4975539;28;45905;-71
2023/02/16 04:32:13;;;;;;;;;52.50;44.50;;;;;6.92;68.78;101625.09;4976251;28;52248;-71
2023/02/16 04:34:38;;;;;;;;;54.75;45.25;;;;;6.89;68.54;101620.72;4975746;28;45404;-70
2023/02/16 04:37:04;;;;;;;;;55.25;45.75;;;;;6.89;69.33;101620.72;4974098;28;45589;-69
2023/02/16 04:39:30;;;;;;;;;54.50;46.00;;;;;6.87;68.62;101636.44;4981053;28;47073;-69
2023/02/16 04:41:55;;;;;;;;;56.50;47.75;;;;;6.84;68.50;101620.78;4975572;28;45256;-71
2023/02/16 04:44:20;;;;;;;;;53.75;46.25;;;;;6.84;69.30;101625.13;4974173;28;45289;-70
2023/02/16 04:46:46;;;;;;;;;57.50;48.25;;;;;6.80;68.92;101616.47;4975563;28;45395;-69
2023/02/16 04:49:11;;;;;;;;;54.75;46.75;;;;;6.83;69.63;101613.81;4975719;28;45333;-70
2023/02/16 04:51:38;;;;;;;;;52.00;43.50;;;;;6.84;69.41;101625.13;4974290;28;45415;-69
2023/02/16 04:54:04;;;;;;;;;57.75;48.00;;;;;6.79;69.12;101604.25;4976115;28;45278;-69
2023/02/16 04:56:30;;;;;;;;;59.00;48.00;;;;;6.78;69.50;101618.22;4974986;28;45316;-69
2023/02/16 04:58:55;;;;;;;;;53.75;45.25;;;;;6.78;69.73;101610.38;4975985;28;46184;-70
2023/02/16 05:01:26;;;;;;;;;56.25;48.00;;;;;6.75;69.41;101613.00;4975453;28;45299;-70
2023/02/16 05:03:51;;;;;;;;;50.75;43.50;;;;;6.70;69.32;101622.63;4975639;28;45333;-70
2023/02/16 05:06:17;;;;;;;;;50.50;43.50;;;;;6.63;69.21;101611.34;4975336;28;45285;-70
2023/02/16 05:08:44;;;;;;;;;55.25;46.75;;;;;6.72;69.97;101628.72;4973723;28;48370;-69
2023/02/16 05:16:39;;;;;;;;;58.00;46.50;;;;;6.73;69.79;101630.47;4976456;28;45252;-70
2023/02/16 05:19:04;;;;;;;;;56.25;46.75;;;;;6.76;69.36;101626.94;4974249;28;62205;-70
2023/02/16 05:21:30;;;;;;;;;56.75;48.00;;;;;6.79;69.61;101629.53;4975118;28;45323;-71
2023/02/16 05:24:00;;;;;;;;;49.00;41.50;;;;;6.80;69.38;101628.66;4975178;28;45357;-70
2023/02/16 05:26:26;;;;;;;;;53.00;45.50;;;;;6.78;69.26;101619.94;4975342;28;45345;-70
2023/02/16 05:28:52;;;;;;;;;47.50;40.00;;;;;6.82;69.43;101614.69;4975130;28;45300;-73
2023/02/16 05:31:17;;;;;;;;;56.25;47.25;;;;;6.81;68.77;101619.91;4974975;28;45272;-70
2023/02/16 05:33:42;;;;;;;;;51.25;42.00;;;;;6.76;69.19;101617.34;4976414;28;45215;-71
2023/02/16 05:36:08;;;;;;;;;55.00;46.00;;;;;6.78;68.97;101627.78;4977062;28;45386;-70
2023/02/16 05:38:33;;;;;;;;;50.00;43.00;;;;;6.75;69.48;101618.25;4975709;28;48298;-71
2023/02/16 05:40:59;;;;;;;;;53.00;44.50;;;;;6.74;69.45;101613.88;4973570;28;50461;-70
2023/02/16 05:43:24;;;;;;;;;52.50;44.50;;;;;6.75;69.33;101619.97;4975195;28;45299;-70
2023/02/16 05:45:49;;;;;;;;;55.00;47.00;;;;;6.70;69.25;101620.03;4975602;28;45232;-70
2023/02/16 05:48:15;;;;;;;;;53.50;45.00;;;;;6.73;69.25;101625.22;4974342;28;46988;-71
2023/02/16 05:50:40;;;;;;;;;50.75;44.25;;;;;6.76;70.33;101634.78;4974879;28;45654;-70
2023/02/16 05:53:05;;;;;;;;;52.50;44.25;;;;;6.76;69.35;101627.81;4975004;28;45335;-70
2023/02/16 05:55:31;;;;;;;;;55.00;46.50;;;;;6.75;69.91;101626.09;4975668;28;45334;-71
2023/02/16 05:57:56;;;;;;;;;50.25;42.50;;;;;6.79;69.48;101630.41;4975224;28;45365;-71
2023/02/16 06:00:21;;;;;;;;;56.75;46.25;;;;;6.71;69.68;101604.31;4974405;28;45427;-72
2023/02/16 06:02:46;;;;;;;;;51.00;44.25;;;;;6.80;69.79;101628.66;4973522;28;45408;-70
2023/02/16 06:05:12;;;;;;;;;50.00;43.50;;;;;6.76;69.79;101619.97;4975711;28;45594;-71
2023/02/16 06:07:37;;;;;;;;;53.00;45.00;;;;;6.71;70.48;101613.91;4974892;28;46549;-71
2023/02/16 06:10:03;;;;;;;;;45.00;36.25;;;;;6.77;70.37;101620.81;4976769;28;45297;-69
2023/02/16 06:12:30;;;;;;;;;50.25;42.50;;;;;6.84;70.75;101625.13;4979452;27;45385;-71
2023/02/16 06:14:56;;;;;;;;;53.75;45.25;;;;;6.86;69.82;101629.47;4982822;28;45154;-71
2023/02/16 06:17:21;;;;;;;;;49.75;41.75;;;;;6.84;70.33;101623.41;4978174;28;45346;-69
2023/02/16 06:19:46;;;;;;;;;53.25;44.50;;;;;6.82;69.89;101614.69;4976528;28;45234;-70
2023/02/16 06:22:12;;;;;;;;;56.75;46.25;;;;;6.92;70.04;101622.47;4974878;28;45750;-70
2023/02/16 06:24:37;;;;;;;;;51.50;44.00;;;;;6.85;69.97;101613.78;4978692;28;45432;-70
2023/02/16 06:27:03;;;;;;;;;54.50;46.00;;;;;6.96;69.50;101629.41;4973521;27;47028;-70
2023/02/16 06:29:28;;;;;;;;;53.75;45.00;;;;;7.00;70.00;101629.38;4975203;28;45190;-70
2023/02/16 06:31:54;;;;;;;;;49.50;42.75;;;;;7.06;70.77;101638.06;4973148;28;45309;-70
2023/02/16 06:34:19;;;;;;;;;52.25;44.00;;;;;7.10;70.26;101648.47;4976266;28;45205;-68
2023/02/16 06:36:44;;;;;;;;;53.50;46.00;;;;;7.13;69.63;101645.81;4973762;28;45373;-69
2023/02/16 06:39:10;;;;;;;;;49.50;41.75;;;;;7.15;70.21;101648.44;4973443;28;45465;-67
2023/02/16 06:41:41;;;;;;;;;52.50;43.75;;;;;7.18;69.49;101655.38;4973955;28;45440;-67
2023/02/16 06:44:12;;;;;;;;;55.25;45.25;;;;;7.20;70.17;101659.75;4973999;28;45260;-74
2023/02/16 06:46:39;;;;;;;;;53.00;45.00;;;;;7.23;69.96;101661.44;4970480;28;46088;-70
2023/02/16 06:49:04;;;;;;;;;51.00;43.25;;;;;7.24;69.95;101660.56;4962179;28;45385;-69
2023/02/16 06:51:30;;;;;;;;;51.00;43.00;;;;;7.25;69.62;101664.91;4973421;28;45331;-76
2023/02/16 06:53:56;;;;;;;;;72.00;56.75;;;;;7.29;70.02;101666.63;4960993;28;45232;-70
2023/02/16 06:56:21;;;;;;;;;55.00;46.00;;;;;7.35;69.94;101661.31;4962290;28;45211;-73
2023/02/16 06:58:47;;;;;;;;;50.25;43.00;;;;;7.38;70.62;101661.31;5027639;28;45391;-73
2023/02/16 07:01:12;;;;;;;;;53.75;45.75;;;;;7.42;70.29;101677.84;5054404;28;45382;-74
2023/02/16 07:03:38;;;;;;;;;50.50;42.00;;;;;7.42;70.22;101677.84;5054634;28;45547;-75
2023/02/16 07:06:04;;;;;;;;;52.50;44.50;;;;;7.47;70.25;101677.84;5055032;28;46970;-76
2023/02/16 07:08:29;;;;;;;;;54.25;45.75;;;;;7.45;70.44;101678.72;5054005;28;45437;-72
2023/02/16 07:10:55;;;;;;;;;48.50;42.50;;;;;7.52;70.40;101684.75;5055719;28;45309;-75
2023/02/16 07:13:20;;;;;;;;;50.00;43.50;;;;;7.48;70.48;101680.41;5056091;28;45339;-76
2023/02/16 07:15:46;;;;;;;;;57.00;47.25;;;;;7.56;70.02;101689.06;5055423;28;45955;-72
2023/02/16 07:18:11;;;;;;;;;54.50;45.75;;;;;7.61;70.17;101689.03;5055557;28;45984;-75
2023/02/16 07:20:37;;;;;;;;;54.75;44.25;;;;;7.65;69.62;101687.25;5055654;28;45690;-76
2023/02/16 07:23:03;;;;;;;;;54.00;46.00;;;;;7.68;70.40;101689.81;5055585;28;45401;-70
2023/02/16 07:25:28;;;;;;;;;52.00;43.50;;;;;7.72;70.88;101700.25;5055304;28;45631;-72
2023/02/16 07:27:53;;;;;;;;;52.25;43.25;;;;;7.75;70.05;101701.97;5070903;28;45658;-70
2023/02/16 07:30:19;;;;;;;;;51.75;44.50;;;;;7.73;69.49;101696.75;5055025;28;51771;-71
2023/02/16 07:32:45;;;;;;;;;54.25;46.25;;;;;7.81;70.16;101703.66;5056255;28;45248;-70
2023/02/16 07:35:11;;;;;;;;;54.75;45.75;;;;;7.83;69.76;101701.91;5055331;28;46363;-68
2023/02/16 07:37:36;;;;;;;;;50.50;43.50;;;;;7.88;69.85;101708.81;5054828;28;45220;-74
2023/02/16 07:40:05;;;;;;;;;54.75;47.00;;;;;7.79;70.00;101695.81;5056246;28;45347;-71
2023/02/16 07:42:31;;;;;;;;;55.25;47.50;;;;;7.90;69.60;101703.56;5055822;28;45447;-69
2023/02/16 07:44:58;;;;;;;;;50.50;43.00;;;;;7.93;69.67;101705.28;5055333;28;45313;-75
2023/02/16 07:47:24;;;;;;;;;46.75;39.50;;;;;7.95;69.50;101701.75;5055614;28;45382;-75
2023/02/16 07:49:49;;;;;;;;;48.75;41.75;;;;;8.00;69.57;101701.72;5055629;28;45435;-73
2023/02/16 07:52:14;;;;;;;;;48.75;41.75;;;;;8.06;69.12;101700.78;5055669;28;45541;-72
2023/02/16 07:54:39;;;;;;;;;47.50;40.75;;;;;8.08;69.50;101699.00;5037900;28;52961;-77
2023/02/16 07:57:05;;;;;;;;;52.75;43.25;;;;;8.12;69.14;101709.44;4973658;28;45443;-75
2023/02/16 07:59:30;;;;;;;;;53.25;43.25;;;;;8.14;69.32;101696.31;4974444;28;45386;-72
2023/02/16 08:01:56;;;;;;;;;49.50;42.50;;;;;8.16;69.51;101699.78;4974343;28;45498;-75
2023/02/16 08:04:21;;;;;;;;;49.50;42.25;;;;;8.14;69.40;101706.78;4974631;28;45324;-76
2023/02/16 08:06:47;;;;;;;;;53.00;45.00;;;;;8.18;69.25;101714.63;4976377;28;45441;-76
2023/02/16 08:09:13;;;;;;;;;47.75;41.00;;;;;8.18;69.02;101709.38;4977601;28;45146;-75
2023/02/16 08:11:39;;;;;;;;;51.50;43.00;;;;;8.23;69.58;101718.94;4976886;28;45507;-73
2023/02/16 08:14:04;;;;;;;;;47.25;39.75;;;;;8.27;69.20;101723.25;4975893;28;46909;-69
2023/02/16 08:16:30;;;;;;;;;47.50;40.75;;;;;8.31;69.10;101725.78;4975781;28;48471;-73
2023/02/16 08:18:56;;;;;;;;;54.00;44.50;;;;;8.34;69.11;101728.38;4975746;28;45218;-77
2023/02/16 08:21:25;;;;;;;;;50.50;43.50;;;;;8.36;68.70;101722.25;4973465;28;45467;-73
2023/02/16 08:23:56;;;;;;;;;47.25;40.00;;;;;8.38;68.88;101723.09;4975053;28;46502;-71
2023/02/16 08:26:24;;;;;;;;;52.00;44.75;;;;;8.37;69.30;101730.13;4975447;28;45396;-75
2023/02/16 08:28:50;;;;;;;;;53.00;45.50;;;;;8.26;69.43;101704.00;4974377;28;45361;-77
2023/02/16 08:31:18;;;;;;;;;48.00;41.25;;;;;8.41;69.54;101716.06;4975753;28;45369;-76
2023/02/16 08:33:44;;;;;;;;;48.25;40.75;;;;;8.47;69.75;101720.34;4973991;27;47955;-77
2023/02/16 08:36:31;;;;;;;;;48.50;41.00;;;;;8.50;69.62;101720.38;4974433;28;45240;-76
2023/02/16 08:38:56;;;;;;;;;46.75;40.00;;;;;8.48;69.21;101701.13;4975669;28;45403;-70
2023/02/16 08:41:27;;;;;;;;;53.25;45.25;;;;;8.52;69.48;101708.13;4976884;28;45345;-76
2023/02/16 08:43:54;;;;;;;;;47.50;41.25;;;;;8.53;69.54;101704.59;4976184;28;46307;-75
2023/02/16 08:46:20;;;;;;;;;53.75;45.25;;;;;8.55;69.40;101694.97;4975772;28;45287;-75
2023/02/16 08:48:46;;;;;;;;;48.75;41.50;;;;;8.50;69.70;101677.53;4975982;28;45562;-77
2023/02/16 08:51:16;;;;;;;;;50.00;42.75;;;;;8.61;69.52;101687.00;4976337;28;45521;-77
2023/02/16 08:53:42;;;;;;;;;51.25;43.50;;;;;8.73;69.61;101688.56;4978489;28;46181;-76
2023/02/16 08:56:09;;;;;;;;;48.25;41.00;;;;;8.80;69.15;101694.59;4975530;28;45237;-75
2023/02/16 08:58:38;;;;;;;;;49.00;42.00;;;;;8.85;69.00;101695.41;4975758;28;45263;-67
2023/02/16 09:01:07;;;;;;;;;52.25;44.00;;;;;8.94;69.06;101701.41;4978015;28;45390;-75
2023/02/16 09:03:37;;;;;;;;;56.75;47.25;;;;;9.01;69.28;101693.41;4980682;28;47228;-74
2023/02/16 09:06:04;;;;;;;;;52.25;44.00;;;;;9.08;69.08;101691.53;4975262;27;45415;-76
2023/02/16 09:08:31;;;;;;;;;55.25;46.75;;;;;9.15;69.36;101700.19;4975123;28;45451;-76
2023/02/16 09:11:01;;;;;;;;;53.00;44.50;;;;;9.21;69.44;101703.56;4977170;28;45218;-74
2023/02/16 09:13:27;;;;;;;;;53.75;45.50;;;;;9.24;68.86;101710.56;4977151;28;47044;-76
2023/02/16 09:15:52;;;;;;;;;57.25;46.50;;;;;9.22;68.82;101712.34;4976547;28;45514;-75
2023/02/16 09:18:17;;;;;;;;;52.50;43.50;;;;;9.30;68.56;101727.94;4976663;28;45819;-76
2023/02/16 09:20:44;;;;;;;;;51.25;43.50;;;;;9.29;68.58;101729.72;4977512;28;45436;-69
2023/02/16 09:23:13;;;;;;;;;54.75;45.75;;;;;9.31;69.09;101737.56;4976318;28;46189;-73
2023/02/16 09:25:40;;;;;;;;;58.75;48.25;;;;;9.33;68.69;101727.88;4975062;28;45277;-74
2023/02/16 09:28:08;;;;;;;;;49.00;42.00;;;;;9.37;68.88;101732.19;4974424;28;45432;-74
2023/02/16 09:30:36;;;;;;;;;59.00;48.00;;;;;9.37;68.96;101731.34;4975471;28;45309;-73
2023/02/16 09:33:02;;;;;;;;;50.50;42.00;;;;;9.48;68.88;101747.78;4974422;28;47019;-70
2023/02/16 09:35:27;;;;;;;;;52.25;44.25;;;;;9.52;68.77;101746.84;4974655;28;45217;-71
2023/02/16 09:37:54;;;;;;;;;49.50;42.00;;;;;9.54;68.89;101733.66;4973700;28;64097;-74
2023/02/16 09:40:20;;;;;;;;;51.00;43.75;;;;;9.64;69.05;101737.91;4973535;28;45495;-72
2023/02/16 09:43:02;;;;;;;;;55.00;45.50;;;;;9.64;68.46;101711.63;4974582;28;45416;-74
2023/02/16 09:45:33;;;;;;;;;54.50;45.25;;;;;9.79;68.66;101727.09;4974653;28;45174;-74
2023/02/16 09:47:59;;;;;;;;;53.75;45.75;;;;;9.89;68.87;101721.69;4973109;28;45392;-73
2023/02/16 09:50:32;;;;;;;;;51.50;43.50;;;;;9.96;68.74;101725.91;4982943;28;45401;-74
2023/02/16 09:53:33;;;;;;;;;53.00;46.00;;;;;10.06;68.42;101727.47;4979281;28;46333;-73
2023/02/16 09:56:20;;;;;;;;;49.00;41.25;;;;;10.15;68.35;101731.69;4982564;28;45255;-75
2023/02/16 09:59:13;;;;;;;;;52.00;42.75;;;;;10.21;68.66;101730.69;4974606;28;45333;-71
2023/02/16 10:02:00;;;;;;;;;49.25;42.50;;;;;10.28;68.20;101741.97;4974894;28;45271;-74
2023/02/16 10:04:33;;;;;;;;;50.75;42.50;;;;;10.32;68.11;101744.47;4972507;28;46346;-74
2023/02/16 10:07:17;;;;;;;;;49.00;41.50;;;;;10.36;68.03;101740.88;4972820;28;45396;-72
2023/02/16 10:09:49;;;;;;;;;50.25;42.25;;;;;10.40;67.91;101731.22;4974198;28;45453;-71
2023/02/16 10:12:24;;;;;;;;;52.25;44.50;;;;;10.50;68.74;101735.38;4974281;28;45231;-76
2023/02/16 10:15:02;;;;;;;;;57.75;48.75;;;;;10.61;68.45;101748.31;4974286;28;46177;-71
2023/02/16 10:17:36;;;;;;;;;51.25;43.25;;;;;10.70;68.50;101735.88;4974981;28;45267;-72
2023/02/16 10:20:11;;;;;;;;;54.50;44.75;;;;;10.79;68.26;101739.13;4972386;28;45407;-71
2023/02/16 10:22:40;;;;;;;;;54.00;43.00;;;;;10.89;67.84;101741.56;4972692;28;45357;-71
2023/02/16 10:25:27;;;;;;;;;48.75;41.50;;;;;10.96;68.08;101746.66;4973344;28;46394;-75
2023/02/16 10:28:13;;;;;;;;;51.75;42.25;;;;;11.02;67.53;101744.78;4972515;28;45526;-74
2023/02/16 10:30:55;;;;;;;;;49.25;41.50;;;;;11.09;67.33;101739.31;4974023;28;45319;-74
2023/02/16 10:33:43;;;;;;;;;50.25;42.25;;;;;11.14;67.87;101741.00;4958215;28;45472;-73
2023/02/16 10:36:44;;;;;;;;;49.75;42.50;;;;;11.19;67.55;101747.88;4976511;28;46097;-75
2023/02/16 10:39:20;;;;;;;;;52.75;44.75;;;;;11.22;67.32;101747.81;4999290;28;45336;-75
2023/02/16 10:41:54;;;;;;;;;44.50;38.00;;;;;11.25;67.53;101741.63;4975552;28;45376;-73
2023/02/16 10:44:32;;;;;;;;;48.50;41.50;;;;;11.34;67.08;101746.66;4974796;28;45295;-74
2023/02/16 10:47:04;;;;;;;;;48.25;41.00;;;;;11.39;67.20;101755.31;4973527;28;46180;-68
2023/02/16 10:49:31;;;;;;;;;50.00;41.50;;;;;11.45;67.55;101749.00;4973903;28;45301;-72
2023/02/16 10:52:00;;;;;;;;;47.25;39.75;;;;;11.47;67.18;101752.47;4973422;28;45345;-73
2023/02/16 10:54:28;;;;;;;;;47.50;40.50;;;;;11.45;67.31;101753.41;4973433;28;45557;-74
2023/02/16 10:56:59;;;;;;;;;46.00;38.25;;;;;11.42;67.79;101750.88;4973201;28;46433;-70
2023/02/16 10:59:29;;;;;;;;;68.33;55.33;;;;;11.27;67.53;101726.63;4973336;28;45584;-73
2023/02/16 11:01:58;;;;;;;;;46.75;40.00;;;;;11.35;68.18;101742.22;4973469;28;45259;-67
2023/02/16 11:04:35;;;;;;;;;47.00;40.50;;;;;11.32;68.39;101744.94;4974089;28;45334;-73
2023/02/16 11:07:14;;;;;;;;;46.00;40.00;;;;;11.27;68.18;101736.28;4973228;28;46369;-70
2023/02/16 11:09:41;;;;;;;;;44.75;38.25;;;;;11.23;68.68;101740.78;4973652;28;45455;-74
2023/02/16 11:12:16;;;;;;;;;43.25;37.75;;;;;11.19;68.71;101745.25;4973184;28;45302;-72
2023/02/16 11:14:49;;;;;;;;;48.50;40.50;;;;;11.11;68.99;101739.31;4972405;28;45402;-69
2023/02/16 11:17:17;;;;;;;;;45.25;39.25;;;;;11.13;69.29;101734.88;4973175;28;45477;-66
2023/02/16 11:19:57;;;;;;;;;49.75;42.00;;;;;11.16;69.04;101740.06;4973458;28;45321;-67
2023/02/16 11:22:40;;;;;;;;;43.50;38.25;;;;;11.19;69.19;101742.63;4971542;28;45229;-74
2023/02/16 11:25:18;;;;;;;;;46.75;39.50;;;;;11.28;69.00;101745.94;4973086;28;45386;-71
2023/02/16 11:27:56;;;;;;;;;46.75;39.50;;;;;11.36;69.21;101746.59;4973245;28;46659;-73
2023/02/16 11:30:48;;;;;;;;;43.75;37.75;;;;;11.46;69.12;101737.56;4971760;28;45316;-74
2023/02/16 11:33:24;;;;;;;;;46.75;40.00;;;;;11.58;69.50;101735.50;4975787;28;45226;-73
2023/02/16 11:35:49;;;;;;;;;41.25;37.00;;;;;11.64;69.09;101733.59;4974037;28;45283;-74
2023/02/16 11:38:33;;;;;;;;;43.50;38.50;;;;;11.72;68.87;101736.03;4974781;28;46249;-69
2023/02/16 11:41:02;;;;;;;;;45.00;38.75;;;;;11.78;68.94;101735.88;4976452;28;45416;-68
2023/02/16 11:43:31;;;;;;;;;47.75;40.75;;;;;11.88;69.14;101727.72;4975944;28;45390;-69
2023/02/16 11:46:00;;;;;;;;;50.25;41.50;;;;;11.97;68.57;101725.69;4975894;28;45452;-70
2023/02/16 11:48:30;;;;;;;;;40.75;36.00;;;;;12.01;68.65;101729.13;4975482;28;45465;-69
2023/02/16 11:51:01;;;;;;;;;45.75;38.75;;;;;12.02;68.58;101730.88;4976105;28;45408;-72
2023/02/16 11:53:32;;;;;;;;;63.50;52.75;;;;;11.99;68.49;101717.75;4975815;28;45332;-70
2023/02/16 11:56:23;;;;;;;;;48.50;41.25;;;;;11.75;68.60;101670.06;4976472;28;45436;-71
2023/02/16 11:59:14;;;;;;;;;42.75;36.75;;;;;11.89;68.85;101698.66;4975993;28;46271;-70
2023/02/16 12:01:54;;;;;;;;;45.25;39.25;;;;;11.74;68.79;101665.69;4976515;28;45333;-74
2023/02/16 12:04:58;;;;;;;;;42.25;37.25;;;;;11.97;69.20;101695.81;4974059;28;45457;-72
2023/02/16 12:07:32;;;;;;;;;41.75;36.25;;;;;12.02;69.08;101698.34;4974288;28;45412;-73
2023/02/16 12:10:19;;;;;;;;;45.00;38.75;;;;;12.05;69.31;101687.72;4975142;28;46277;-72
2023/02/16 12:13:05;;;;;;;;;40.25;36.25;;;;;12.11;68.98;101687.53;4973927;28;45471;-74